sensor_id;sensor_type;location;lat;lon;timestamp;pressure;altitude;pressure_sealevel;temperature
61703;BMP280;47622;47.726;3.298;2023-08-07T00:00:21;99559.56;;;12.09
61703;BMP280;47622;47.726;3.298;2023-08-07T00:02:46;99560.59;;;11.99
61703;BMP280;47622;47.726;3.298;2023-08-07T00:05:12;99562.16;;;12.00
61703;BMP280;47622;47.726;3.298;2023-08-07T00:07:37;99567.50;;;11.95
61703;BMP280;47622;47.726;3.298;2023-08-07T00:10:03;99570.13;;;11.95
61703;BMP280;47622;47.726;3.298;2023-08-07T00:12:29;99572.41;;;11.88
61703;BMP280;47622;47.726;3.298;2023-08-07T00:14:55;99566.19;;;11.84
61703;BMP280;47622;47.726;3.298;2023-08-07T00:17:20;99561.03;;;11.79
61703;BMP280;47622;47.726;3.298;2023-08-07T00:19:46;99559.50;;;11.78
61703;BMP280;47622;47.726;3.298;2023-08-07T00:22:11;99569.53;;;11.76
61703;BMP280;47622;47.726;3.298;2023-08-07T00:24:37;99568.56;;;11.72
61703;BMP280;47622;47.726;3.298;2023-08-07T00:27:02;99564.47;;;11.66
61703;BMP280;47622;47.726;3.298;2023-08-07T00:29:28;99565.66;;;11.60
61703;BMP280;47622;47.726;3.298;2023-08-07T00:31:54;99566.13;;;11.62
61703;BMP280;47622;47.726;3.298;2023-08-07T00:34:19;99565.47;;;11.56
61703;BMP280;47622;47.726;3.298;2023-08-07T00:36:45;99565.47;;;11.56
61703;BMP280;47622;47.726;3.298;2023-08-07T00:39:10;99571.00;;;11.54
61703;BMP280;47622;47.726;3.298;2023-08-07T00:41:36;99568.56;;;11.44
61703;BMP280;47622;47.726;3.298;2023-08-07T00:44:03;99562.16;;;11.50
61703;BMP280;47622;47.726;3.298;2023-08-07T00:46:29;99563.25;;;11.49
61703;BMP280;47622;47.726;3.298;2023-08-07T00:48:55;99575.88;;;11.47
61703;BMP280;47622;47.726;3.298;2023-08-07T00:51:22;99569.16;;;11.41
61703;BMP280;47622;47.726;3.298;2023-08-07T00:53:48;99562.72;;;11.47
61703;BMP280;47622;47.726;3.298;2023-08-07T00:56:14;99560.19;;;11.42
61703;BMP280;47622;47.726;3.298;2023-08-07T00:58:40;99567.63;;;11.40
61703;BMP280;47622;47.726;3.298;2023-08-07T01:01:07;99565.66;;;11.32
61703;BMP280;47622;47.726;3.298;2023-08-07T01:03:32;99564.31;;;11.35
61703;BMP280;47622;47.726;3.298;2023-08-07T01:05:58;99569.34;;;11.31
61703;BMP280;47622;47.726;3.298;2023-08-07T01:08:24;99560.03;;;11.25
61703;BMP280;47622;47.726;3.298;2023-08-07T01:11:16;99560.69;;;11.17
61703;BMP280;47622;47.726;3.298;2023-08-07T01:13:51;99559.03;;;11.21
61703;BMP280;47622;47.726;3.298;2023-08-07T01:16:22;99557.97;;;11.22
61703;BMP280;47622;47.726;3.298;2023-08-07T01:18:53;99556.50;;;11.16
61703;BMP280;47622;47.726;3.298;2023-08-07T01:21:21;99562.34;;;11.13
61703;BMP280;47622;47.726;3.298;2023-08-07T01:23:47;99558.63;;;11.00
61703;BMP280;47622;47.726;3.298;2023-08-07T01:26:14;99567.81;;;11.03
61703;BMP280;47622;47.726;3.298;2023-08-07T01:28:47;99563.22;;;10.94
61703;BMP280;47622;47.726;3.298;2023-08-07T01:31:16;99565.06;;;10.94
61703;BMP280;47622;47.726;3.298;2023-08-07T01:33:57;99565.44;;;10.87
61703;BMP280;47622;47.726;3.298;2023-08-07T01:36:28;99565.44;;;10.87
61703;BMP280;47622;47.726;3.298;2023-08-07T01:38:57;99560.38;;;10.91
61703;BMP280;47622;47.726;3.298;2023-08-07T01:41:23;99555.91;;;10.91
61703;BMP280;47622;47.726;3.298;2023-08-07T01:43:49;99555.25;;;10.86
61703;BMP280;47622;47.726;3.298;2023-08-07T01:46:16;99559.31;;;10.92
61703;BMP280;47622;47.726;3.298;2023-08-07T01:48:41;99562.72;;;10.92
61703;BMP280;47622;47.726;3.298;2023-08-07T01:51:07;99560.22;;;11.01
61703;BMP280;47622;47.726;3.298;2023-08-07T01:53:32;99558.44;;;10.96
61703;BMP280;47622;47.726;3.298;2023-08-07T01:55:58;99559.41;;;11.01
61703;BMP280;47622;47.726;3.298;2023-08-07T01:58:23;99566.34;;;11.10
61703;BMP280;47622;47.726;3.298;2023-08-07T02:00:49;99559.94;;;11.03
61703;BMP280;47622;47.726;3.298;2023-08-07T02:03:15;99564.84;;;11.04
61703;BMP280;47622;47.726;3.298;2023-08-07T02:05:40;99568.16;;;10.96
61703;BMP280;47622;47.726;3.298;2023-08-07T02:08:06;99570.06;;;10.90
61703;BMP280;47622;47.726;3.298;2023-08-07T02:10:31;99572.81;;;10.85
61703;BMP280;47622;47.726;3.298;2023-08-07T02:12:57;99567.59;;;10.85
61703;BMP280;47622;47.726;3.298;2023-08-07T02:15:24;99563.28;;;10.89
61703;BMP280;47622;47.726;3.298;2023-08-07T02:17:50;99565.63;;;10.91
61703;BMP280;47622;47.726;3.298;2023-08-07T02:20:16;99562.13;;;10.82
61703;BMP280;47622;47.726;3.298;2023-08-07T02:22:42;99571.25;;;10.84
61703;BMP280;47622;47.726;3.298;2023-08-07T02:25:08;99567.38;;;10.95
61703;BMP280;47622;47.726;3.298;2023-08-07T02:27:34;99565.03;;;10.80
61703;BMP280;47622;47.726;3.298;2023-08-07T02:29:59;99569.13;;;10.86
61703;BMP280;47622;47.726;3.298;2023-08-07T02:32:25;99568.47;;;11.08
61703;BMP280;47622;47.726;3.298;2023-08-07T02:34:51;99567.81;;;11.03
61703;BMP280;47622;47.726;3.298;2023-08-07T02:37:16;99565.22;;;10.84
61703;BMP280;47622;47.726;3.298;2023-08-07T02:39:42;99571.91;;;10.76
61703;BMP280;47622;47.726;3.298;2023-08-07T02:42:07;99566.78;;;10.71
61703;BMP280;47622;47.726;3.298;2023-08-07T02:44:33;99579.94;;;10.66
61703;BMP280;47622;47.726;3.298;2023-08-07T02:46:59;99572.72;;;10.58
61703;BMP280;47622;47.726;3.298;2023-08-07T02:49:24;99579.13;;;10.52
61703;BMP280;47622;47.726;3.298;2023-08-07T02:51:50;99575.81;;;10.46
61703;BMP280;47622;47.726;3.298;2023-08-07T02:54:15;99578.72;;;10.45
61703;BMP280;47622;47.726;3.298;2023-08-07T02:56:41;99575.72;;;10.51
61703;BMP280;47622;47.726;3.298;2023-08-07T02:59:07;99569.69;;;10.51
61703;BMP280;47622;47.726;3.298;2023-08-07T03:01:32;99561.34;;;10.49
61703;BMP280;47622;47.726;3.298;2023-08-07T03:03:58;99571.53;;;10.50
61703;BMP280;47622;47.726;3.298;2023-08-07T03:06:23;99562.31;;;10.53
61703;BMP280;47622;47.726;3.298;2023-08-07T03:08:49;99572.22;;;10.56
61703;BMP280;47622;47.726;3.298;2023-08-07T03:11:15;99564.94;;;10.53
61703;BMP280;47622;47.726;3.298;2023-08-07T03:13:40;99564.38;;;10.56
61703;BMP280;47622;47.726;3.298;2023-08-07T03:16:07;99570.38;;;10.43
61703;BMP280;47622;47.726;3.298;2023-08-07T03:18:34;99566.25;;;10.36
61703;BMP280;47622;47.726;3.298;2023-08-07T03:21:00;99566.44;;;10.40
61703;BMP280;47622;47.726;3.298;2023-08-07T03:23:27;99565.13;;;10.43
61703;BMP280;47622;47.726;3.298;2023-08-07T03:28:28;99561.94;;;10.46
61703;BMP280;47622;47.726;3.298;2023-08-07T03:30:54;99562.84;;;10.69
61703;BMP280;47622;47.726;3.298;2023-08-07T03:33:19;99560.03;;;10.65
61703;BMP280;47622;47.726;3.298;2023-08-07T03:35:45;99558.03;;;10.76
61703;BMP280;47622;47.726;3.298;2023-08-07T03:38:11;99558.97;;;10.66
61703;BMP280;47622;47.726;3.298;2023-08-07T03:40:36;99558.94;;;10.52
61703;BMP280;47622;47.726;3.298;2023-08-07T03:43:02;99556.59;;;10.51
61703;BMP280;47622;47.726;3.298;2023-08-07T03:45:27;99560.78;;;10.52
61703;BMP280;47622;47.726;3.298;2023-08-07T03:47:53;99559.88;;;10.43
61703;BMP280;47622;47.726;3.298;2023-08-07T03:50:18;99562.75;;;10.41
61703;BMP280;47622;47.726;3.298;2023-08-07T03:52:44;99555.28;;;10.34
61703;BMP280;47622;47.726;3.298;2023-08-07T03:55:10;99563.28;;;10.24
61703;BMP280;47622;47.726;3.298;2023-08-07T03:57:35;99560.13;;;10.27
61703;BMP280;47622;47.726;3.298;2023-08-07T04:00:01;99564.78;;;10.12
61703;BMP280;47622;47.726;3.298;2023-08-07T04:02:27;99567.69;;;10.10
61703;BMP280;47622;47.726;3.298;2023-08-07T04:04:54;99558.84;;;10.06
61703;BMP280;47622;47.726;3.298;2023-08-07T04:07:20;99564.16;;;10.01
61703;BMP280;47622;47.726;3.298;2023-08-07T04:09:45;99563.09;;;10.02
61703;BMP280;47622;47.726;3.298;2023-08-07T04:12:12;99562.56;;;10.00
61703;BMP280;47622;47.726;3.298;2023-08-07T04:14:38;99552.09;;;10.00
61703;BMP280;47622;47.726;3.298;2023-08-07T04:17:03;99564.06;;;10.06
61703;BMP280;47622;47.726;3.298;2023-08-07T04:19:29;99565.75;;;9.97
61703;BMP280;47622;47.726;3.298;2023-08-07T04:21:55;99572.06;;;9.96
61703;BMP280;47622;47.726;3.298;2023-08-07T04:24:20;99574.19;;;9.94
61703;BMP280;47622;47.726;3.298;2023-08-07T04:26:47;99570.53;;;9.95
61703;BMP280;47622;47.726;3.298;2023-08-07T04:29:14;99571.63;;;9.89
61703;BMP280;47622;47.726;3.298;2023-08-07T04:31:39;99571.63;;;9.89
61703;BMP280;47622;47.726;3.298;2023-08-07T04:34:05;99579.00;;;9.87
61703;BMP280;47622;47.726;3.298;2023-08-07T04:36:30;99574.75;;;9.91
61703;BMP280;47622;47.726;3.298;2023-08-07T04:38:56;99585.22;;;9.91
61703;BMP280;47622;47.726;3.298;2023-08-07T04:41:24;99582.16;;;9.84
61703;BMP280;47622;47.726;3.298;2023-08-07T04:43:49;99590.25;;;9.87
61703;BMP280;47622;47.726;3.298;2023-08-07T04:46:15;99597.44;;;10.00
61703;BMP280;47622;47.726;3.298;2023-08-07T04:48:41;99589.28;;;10.02
61703;BMP280;47622;47.726;3.298;2023-08-07T04:51:06;99585.63;;;10.22
61703;BMP280;47622;47.726;3.298;2023-08-07T04:53:32;99584.34;;;10.19
61703;BMP280;47622;47.726;3.298;2023-08-07T04:55:59;99585.94;;;10.15
61703;BMP280;47622;47.726;3.298;2023-08-07T04:58:25;99584.38;;;10.14
61703;BMP280;47622;47.726;3.298;2023-08-07T05:00:57;99592.97;;;10.20
61703;BMP280;47622;47.726;3.298;2023-08-07T05:03:23;99595.50;;;10.25
61703;BMP280;47622;47.726;3.298;2023-08-07T05:05:49;99593.59;;;10.30
61703;BMP280;47622;47.726;3.298;2023-08-07T05:08:15;99597.72;;;10.36
61703;BMP280;47622;47.726;3.298;2023-08-07T05:10:41;99600.25;;;10.42
61703;BMP280;47622;47.726;3.298;2023-08-07T05:13:06;99603.88;;;10.46
61703;BMP280;47622;47.726;3.298;2023-08-07T05:15:32;99595.56;;;10.39
61703;BMP280;47622;47.726;3.298;2023-08-07T05:17:57;99611.25;;;10.44
61703;BMP280;47622;47.726;3.298;2023-08-07T05:20:23;99612.19;;;10.48
61703;BMP280;47622;47.726;3.298;2023-08-07T05:22:49;99604.16;;;10.44
61703;BMP280;47622;47.726;3.298;2023-08-07T05:25:15;99604.94;;;10.45
61703;BMP280;47622;47.726;3.298;2023-08-07T05:27:44;99606.03;;;10.57
61703;BMP280;47622;47.726;3.298;2023-08-07T05:30:11;99602.09;;;10.60
61703;BMP280;47622;47.726;3.298;2023-08-07T05:32:36;99601.25;;;10.78
61703;BMP280;47622;47.726;3.298;2023-08-07T05:35:06;99593.41;;;10.78
61703;BMP280;47622;47.726;3.298;2023-08-07T05:37:33;99598.78;;;10.68
61703;BMP280;47622;47.726;3.298;2023-08-07T05:39:58;99595.94;;;10.83
61703;BMP280;47622;47.726;3.298;2023-08-07T05:42:24;99592.22;;;10.84
61703;BMP280;47622;47.726;3.298;2023-08-07T05:44:50;99592.03;;;10.81
61703;BMP280;47622;47.726;3.298;2023-08-07T05:47:15;99587.00;;;10.84
61703;BMP280;47622;47.726;3.298;2023-08-07T05:49:41;99585.03;;;10.90
61703;BMP280;47622;47.726;3.298;2023-08-07T05:52:07;99590.72;;;10.97
61703;BMP280;47622;47.726;3.298;2023-08-07T05:54:33;99591.81;;;11.10
61703;BMP280;47622;47.726;3.298;2023-08-07T05:56:59;99584.91;;;11.14
61703;BMP280;47622;47.726;3.298;2023-08-07T05:59:24;99592.69;;;11.33
61703;BMP280;47622;47.726;3.298;2023-08-07T06:01:50;99597.84;;;11.51
61703;BMP280;47622;47.726;3.298;2023-08-07T06:04:16;99593.47;;;11.61
61703;BMP280;47622;47.726;3.298;2023-08-07T06:06:41;99596.94;;;11.70
61703;BMP280;47622;47.726;3.298;2023-08-07T06:09:08;99605.13;;;11.82
61703;BMP280;47622;47.726;3.298;2023-08-07T06:11:33;99600.22;;;11.89
61703;BMP280;47622;47.726;3.298;2023-08-07T06:13:59;99604.28;;;11.95
61703;BMP280;47622;47.726;3.298;2023-08-07T06:16:25;99606.16;;;12.08
61703;BMP280;47622;47.726;3.298;2023-08-07T06:18:50;99607.03;;;12.26
61703;BMP280;47622;47.726;3.298;2023-08-07T06:21:16;99605.91;;;12.41
61703;BMP280;47622;47.726;3.298;2023-08-07T06:23:41;99609.97;;;12.69
61703;BMP280;47622;47.726;3.298;2023-08-07T06:26:07;99619.06;;;12.94
61703;BMP280;47622;47.726;3.298;2023-08-07T06:28:34;99623.69;;;13.28
61703;BMP280;47622;47.726;3.298;2023-08-07T06:31:04;99619.91;;;13.52
61703;BMP280;47622;47.726;3.298;2023-08-07T06:33:31;99629.41;;;13.79
61703;BMP280;47622;47.726;3.298;2023-08-07T06:35:57;99641.84;;;14.13
61703;BMP280;47622;47.726;3.298;2023-08-07T06:38:23;99642.59;;;14.48
61703;BMP280;47622;47.726;3.298;2023-08-07T06:40:48;99637.78;;;14.58
61703;BMP280;47622;47.726;3.298;2023-08-07T06:43:14;99648.91;;;14.73
61703;BMP280;47622;47.726;3.298;2023-08-07T06:45:39;99648.19;;;14.55
61703;BMP280;47622;47.726;3.298;2023-08-07T06:48:05;99653.13;;;14.56
61703;BMP280;47622;47.726;3.298;2023-08-07T06:50:30;99657.28;;;14.75
61703;BMP280;47622;47.726;3.298;2023-08-07T06:52:56;99651.53;;;14.81
61703;BMP280;47622;47.726;3.298;2023-08-07T06:55:22;99657.75;;;14.77
61703;BMP280;47622;47.726;3.298;2023-08-07T06:57:48;99649.97;;;14.80
61703;BMP280;47622;47.726;3.298;2023-08-07T07:00:14;99649.00;;;14.93
61703;BMP280;47622;47.726;3.298;2023-08-07T07:02:40;99652.53;;;15.06
61703;BMP280;47622;47.726;3.298;2023-08-07T07:05:06;99657.44;;;15.25
61703;BMP280;47622;47.726;3.298;2023-08-07T07:07:31;99655.00;;;15.11
61703;BMP280;47622;47.726;3.298;2023-08-07T07:09:57;99664.47;;;15.12
61703;BMP280;47622;47.726;3.298;2023-08-07T07:12:28;99664.34;;;15.38
61703;BMP280;47622;47.726;3.298;2023-08-07T07:14:54;99663.84;;;15.45
61703;BMP280;47622;47.726;3.298;2023-08-07T07:17:20;99661.81;;;15.50
61703;BMP280;47622;47.726;3.298;2023-08-07T07:19:45;99667.84;;;15.51
61703;BMP280;47622;47.726;3.298;2023-08-07T07:22:11;99673.13;;;15.59
61703;BMP280;47622;47.726;3.298;2023-08-07T07:24:37;99666.97;;;15.68
61703;BMP280;47622;47.726;3.298;2023-08-07T07:27:03;99666.13;;;15.84
61703;BMP280;47622;47.726;3.298;2023-08-07T07:29:29;99670.09;;;16.11
61703;BMP280;47622;47.726;3.298;2023-08-07T07:31:54;99676.44;;;16.19
61703;BMP280;47622;47.726;3.298;2023-08-07T07:34:21;99673.28;;;16.38
61703;BMP280;47622;47.726;3.298;2023-08-07T07:36:46;99678.22;;;16.27
61703;BMP280;47622;47.726;3.298;2023-08-07T07:39:12;99680.50;;;16.49
61703;BMP280;47622;47.726;3.298;2023-08-07T07:41:37;99680.69;;;16.77
61703;BMP280;47622;47.726;3.298;2023-08-07T07:44:03;99682.34;;;16.82
61703;BMP280;47622;47.726;3.298;2023-08-07T07:46:29;99693.84;;;16.86
61703;BMP280;47622;47.726;3.298;2023-08-07T07:48:55;99683.03;;;17.03
61703;BMP280;47622;47.726;3.298;2023-08-07T07:51:21;99685.47;;;16.96
61703;BMP280;47622;47.726;3.298;2023-08-07T07:53:47;99682.63;;;16.68
61703;BMP280;47622;47.726;3.298;2023-08-07T07:56:13;99682.53;;;16.65
61703;BMP280;47622;47.726;3.298;2023-08-07T07:58:38;99674.19;;;17.11
61703;BMP280;47622;47.726;3.298;2023-08-07T08:01:06;99678.50;;;17.40
61703;BMP280;47622;47.726;3.298;2023-08-07T08:03:32;99670.00;;;17.75
61703;BMP280;47622;47.726;3.298;2023-08-07T08:05:58;99685.22;;;17.90
61703;BMP280;47622;47.726;3.298;2023-08-07T08:08:23;99697.41;;;17.91
61703;BMP280;47622;47.726;3.298;2023-08-07T08:10:49;99684.31;;;18.26
61703;BMP280;47622;47.726;3.298;2023-08-07T08:13:17;99691.53;;;18.41
61703;BMP280;47622;47.726;3.298;2023-08-07T08:15:46;99696.78;;;18.69
61703;BMP280;47622;47.726;3.298;2023-08-07T08:18:12;99704.97;;;18.92
61703;BMP280;47622;47.726;3.298;2023-08-07T08:20:38;99712.31;;;19.14
61703;BMP280;47622;47.726;3.298;2023-08-07T08:23:04;99697.09;;;20.04
61703;BMP280;47622;47.726;3.298;2023-08-07T08:25:31;99696.69;;;20.93
61703;BMP280;47622;47.726;3.298;2023-08-07T08:27:58;99710.69;;;21.13
61703;BMP280;47622;47.726;3.298;2023-08-07T08:30:25;99704.06;;;20.32
61703;BMP280;47622;47.726;3.298;2023-08-07T08:32:50;99708.47;;;20.24
61703;BMP280;47622;47.726;3.298;2023-08-07T08:35:17;99711.88;;;22.13
61703;BMP280;47622;47.726;3.298;2023-08-07T08:37:43;99712.91;;;21.67
61703;BMP280;47622;47.726;3.298;2023-08-07T08:40:09;99704.91;;;21.38
61703;BMP280;47622;47.726;3.298;2023-08-07T08:42:40;99703.66;;;21.58
61703;BMP280;47622;47.726;3.298;2023-08-07T08:45:10;99715.31;;;22.57
61703;BMP280;47622;47.726;3.298;2023-08-07T08:47:38;99720.31;;;21.48
61703;BMP280;47622;47.726;3.298;2023-08-07T08:50:08;99720.75;;;21.23
61703;BMP280;47622;47.726;3.298;2023-08-07T08:52:35;99720.47;;;22.84
61703;BMP280;47622;47.726;3.298;2023-08-07T08:55:02;99727.28;;;21.29
61703;BMP280;47622;47.726;3.298;2023-08-07T08:57:28;99716.13;;;21.20
61703;BMP280;47622;47.726;3.298;2023-08-07T08:59:58;99715.28;;;21.16
61703;BMP280;47622;47.726;3.298;2023-08-07T09:02:24;99723.59;;;22.38
61703;BMP280;47622;47.726;3.298;2023-08-07T09:04:50;99715.25;;;24.09
61703;BMP280;47622;47.726;3.298;2023-08-07T09:07:16;99715.25;;;24.45
61703;BMP280;47622;47.726;3.298;2023-08-07T09:09:44;99725.63;;;23.10
61703;BMP280;47622;47.726;3.298;2023-08-07T09:12:16;99724.16;;;23.23
61703;BMP280;47622;47.726;3.298;2023-08-07T09:14:50;99728.81;;;25.43
61703;BMP280;47622;47.726;3.298;2023-08-07T09:17:17;99724.06;;;25.72
61703;BMP280;47622;47.726;3.298;2023-08-07T09:19:43;99731.28;;;25.02
61703;BMP280;47622;47.726;3.298;2023-08-07T09:22:09;99727.28;;;25.45
61703;BMP280;47622;47.726;3.298;2023-08-07T09:24:35;99727.00;;;25.18
61703;BMP280;47622;47.726;3.298;2023-08-07T09:27:00;99736.31;;;24.71
61703;BMP280;47622;47.726;3.298;2023-08-07T09:29:26;99733.53;;;23.79
61703;BMP280;47622;47.726;3.298;2023-08-07T09:31:54;99742.22;;;22.79
61703;BMP280;47622;47.726;3.298;2023-08-07T09:34:20;99733.78;;;22.73
61703;BMP280;47622;47.726;3.298;2023-08-07T09:36:46;99739.88;;;22.26
61703;BMP280;47622;47.726;3.298;2023-08-07T09:39:11;99739.47;;;21.87
61703;BMP280;47622;47.726;3.298;2023-08-07T09:41:37;99732.59;;;21.52
61703;BMP280;47622;47.726;3.298;2023-08-07T09:44:07;99738.94;;;21.74
61703;BMP280;47622;47.726;3.298;2023-08-07T09:46:41;99741.09;;;22.32
61703;BMP280;47622;47.726;3.298;2023-08-07T09:49:06;99740.34;;;21.64
61703;BMP280;47622;47.726;3.298;2023-08-07T09:51:46;99736.41;;;22.66
61703;BMP280;47622;47.726;3.298;2023-08-07T09:54:12;99736.66;;;22.50
61703;BMP280;47622;47.726;3.298;2023-08-07T09:56:41;99730.72;;;21.30
61703;BMP280;47622;47.726;3.298;2023-08-07T09:59:07;99725.69;;;21.51
61703;BMP280;47622;47.726;3.298;2023-08-07T10:01:36;99735.00;;;21.98
61703;BMP280;47622;47.726;3.298;2023-08-07T10:04:02;99739.53;;;22.31
61703;BMP280;47622;47.726;3.298;2023-08-07T10:06:28;99723.97;;;22.88
61703;BMP280;47622;47.726;3.298;2023-08-07T10:08:55;99743.84;;;23.56
61703;BMP280;47622;47.726;3.298;2023-08-07T10:11:21;99742.34;;;23.79
61703;BMP280;47622;47.726;3.298;2023-08-07T10:13:47;99733.25;;;24.12
61703;BMP280;47622;47.726;3.298;2023-08-07T10:16:13;99745.13;;;24.22
61703;BMP280;47622;47.726;3.298;2023-08-07T10:18:39;99736.72;;;24.66
61703;BMP280;47622;47.726;3.298;2023-08-07T10:21:06;99736.72;;;24.66
61703;BMP280;47622;47.726;3.298;2023-08-07T10:23:35;99734.41;;;24.61
61703;BMP280;47622;47.726;3.298;2023-08-07T10:26:04;99721.25;;;25.09
61703;BMP280;47622;47.726;3.298;2023-08-07T10:28:33;99726.66;;;24.99
61703;BMP280;47622;47.726;3.298;2023-08-07T10:31:04;99722.13;;;24.46
61703;BMP280;47622;47.726;3.298;2023-08-07T10:33:31;99731.31;;;24.91
61703;BMP280;47622;47.726;3.298;2023-08-07T10:35:57;99729.38;;;24.91
61703;BMP280;47622;47.726;3.298;2023-08-07T10:38:25;99723.91;;;25.23
61703;BMP280;47622;47.726;3.298;2023-08-07T10:41:12;99730.41;;;25.26
61703;BMP280;47622;47.726;3.298;2023-08-07T10:43:42;99740.28;;;25.43
61703;BMP280;47622;47.726;3.298;2023-08-07T10:46:11;99727.84;;;25.78
61703;BMP280;47622;47.726;3.298;2023-08-07T10:48:43;99732.66;;;26.49
61703;BMP280;47622;47.726;3.298;2023-08-07T10:51:19;99728.09;;;26.83
61703;BMP280;47622;47.726;3.298;2023-08-07T10:53:47;99725.69;;;26.55
61703;BMP280;47622;47.726;3.298;2023-08-07T10:56:36;99726.13;;;27.17
61703;BMP280;47622;47.726;3.298;2023-08-07T10:59:08;99728.28;;;26.24
61703;BMP280;47622;47.726;3.298;2023-08-07T11:04:10;99715.28;;;24.34
61703;BMP280;47622;47.726;3.298;2023-08-07T11:06:37;99717.13;;;23.88
61703;BMP280;47622;47.726;3.298;2023-08-07T11:09:05;99720.88;;;23.69
61703;BMP280;47622;47.726;3.298;2023-08-07T11:14:11;99706.34;;;23.59
61703;BMP280;47622;47.726;3.298;2023-08-07T11:16:37;99704.06;;;24.75
61703;BMP280;47622;47.726;3.298;2023-08-07T11:19:04;99696.06;;;25.65
61703;BMP280;47622;47.726;3.298;2023-08-07T11:21:32;99702.50;;;26.68
61703;BMP280;47622;47.726;3.298;2023-08-07T11:23:59;99707.75;;;26.78
61703;BMP280;47622;47.726;3.298;2023-08-07T11:26:24;99711.47;;;26.13
61703;BMP280;47622;47.726;3.298;2023-08-07T11:28:51;99701.28;;;25.21
61703;BMP280;47622;47.726;3.298;2023-08-07T11:31:20;99695.13;;;25.17
61703;BMP280;47622;47.726;3.298;2023-08-07T11:33:47;99703.78;;;24.34
61703;BMP280;47622;47.726;3.298;2023-08-07T11:36:15;99696.41;;;22.84
61703;BMP280;47622;47.726;3.298;2023-08-07T11:38:42;99691.81;;;22.84
61703;BMP280;47622;47.726;3.298;2023-08-07T11:41:16;99701.84;;;22.43
61703;BMP280;47622;47.726;3.298;2023-08-07T11:43:42;99704.03;;;21.93
61703;BMP280;47622;47.726;3.298;2023-08-07T11:46:12;99706.38;;;21.98
61703;BMP280;47622;47.726;3.298;2023-08-07T11:48:39;99705.34;;;22.51
61703;BMP280;47622;47.726;3.298;2023-08-07T11:51:06;99698.13;;;22.58
61703;BMP280;47622;47.726;3.298;2023-08-07T11:53:34;99701.34;;;22.30
61703;BMP280;47622;47.726;3.298;2023-08-07T11:56:11;99686.72;;;22.61
61703;BMP280;47622;47.726;3.298;2023-08-07T11:58:47;99687.97;;;22.82
61703;BMP280;47622;47.726;3.298;2023-08-07T12:01:18;99689.25;;;23.02
61703;BMP280;47622;47.726;3.298;2023-08-07T12:03:55;99688.03;;;23.97
61703;BMP280;47622;47.726;3.298;2023-08-07T12:06:21;99680.72;;;23.69
61703;BMP280;47622;47.726;3.298;2023-08-07T12:08:49;99681.53;;;24.08
61703;BMP280;47622;47.726;3.298;2023-08-07T12:11:18;99677.69;;;23.77
61703;BMP280;47622;47.726;3.298;2023-08-07T12:13:45;99680.53;;;22.50
61703;BMP280;47622;47.726;3.298;2023-08-07T12:16:11;99677.47;;;22.55
61703;BMP280;47622;47.726;3.298;2023-08-07T12:18:49;99681.75;;;23.29
61703;BMP280;47622;47.726;3.298;2023-08-07T12:21:16;99680.75;;;24.65
61703;BMP280;47622;47.726;3.298;2023-08-07T12:23:43;99666.56;;;24.61
61703;BMP280;47622;47.726;3.298;2023-08-07T12:26:09;99678.41;;;24.81
61703;BMP280;47622;47.726;3.298;2023-08-07T12:28:35;99678.50;;;24.20
61703;BMP280;47622;47.726;3.298;2023-08-07T12:31:02;99678.38;;;23.57
61703;BMP280;47622;47.726;3.298;2023-08-07T12:33:31;99675.19;;;23.23
61703;BMP280;47622;47.726;3.298;2023-08-07T12:35:57;99672.91;;;23.21
61703;BMP280;47622;47.726;3.298;2023-08-07T12:38:23;99666.81;;;22.62
61703;BMP280;47622;47.726;3.298;2023-08-07T12:40:49;99670.78;;;22.28
61703;BMP280;47622;47.726;3.298;2023-08-07T12:43:16;99669.13;;;21.42
61703;BMP280;47622;47.726;3.298;2023-08-07T12:45:41;99667.75;;;21.89
61703;BMP280;47622;47.726;3.298;2023-08-07T12:48:07;99669.25;;;21.53
61703;BMP280;47622;47.726;3.298;2023-08-07T12:50:33;99670.88;;;21.98
61703;BMP280;47622;47.726;3.298;2023-08-07T12:52:58;99672.44;;;22.43
61703;BMP280;47622;47.726;3.298;2023-08-07T12:55:24;99670.56;;;23.05
61703;BMP280;47622;47.726;3.298;2023-08-07T12:57:53;99671.16;;;23.64
61703;BMP280;47622;47.726;3.298;2023-08-07T13:00:19;99662.41;;;24.28
61703;BMP280;47622;47.726;3.298;2023-08-07T13:02:46;99648.97;;;24.49
61703;BMP280;47622;47.726;3.298;2023-08-07T13:05:12;99655.38;;;24.83
61703;BMP280;47622;47.726;3.298;2023-08-07T13:07:39;99658.13;;;23.63
61703;BMP280;47622;47.726;3.298;2023-08-07T13:10:06;99651.00;;;22.98
61703;BMP280;47622;47.726;3.298;2023-08-07T13:12:36;99646.31;;;22.26
61703;BMP280;47622;47.726;3.298;2023-08-07T13:15:04;99656.56;;;22.17
61703;BMP280;47622;47.726;3.298;2023-08-07T13:17:37;99658.72;;;22.52
61703;BMP280;47622;47.726;3.298;2023-08-07T13:20:04;99646.72;;;22.83
61703;BMP280;47622;47.726;3.298;2023-08-07T13:22:44;99638.69;;;22.83
61703;BMP280;47622;47.726;3.298;2023-08-07T13:25:11;99641.84;;;22.37
61703;BMP280;47622;47.726;3.298;2023-08-07T13:27:37;99646.84;;;22.46
61703;BMP280;47622;47.726;3.298;2023-08-07T13:30:03;99639.63;;;22.46
61703;BMP280;47622;47.726;3.298;2023-08-07T13:32:29;99642.59;;;21.93
61703;BMP280;47622;47.726;3.298;2023-08-07T13:34:55;99639.06;;;21.82
61703;BMP280;47622;47.726;3.298;2023-08-07T13:37:21;99638.38;;;21.89
61703;BMP280;47622;47.726;3.298;2023-08-07T13:39:48;99640.88;;;22.15
61703;BMP280;47622;47.726;3.298;2023-08-07T13:42:16;99640.56;;;22.79
61703;BMP280;47622;47.726;3.298;2023-08-07T13:44:41;99638.06;;;23.07
61703;BMP280;47622;47.726;3.298;2023-08-07T13:47:07;99644.38;;;22.74
61703;BMP280;47622;47.726;3.298;2023-08-07T13:49:34;99639.03;;;22.19
61703;BMP280;47622;47.726;3.298;2023-08-07T13:51:59;99641.22;;;22.07
61703;BMP280;47622;47.726;3.298;2023-08-07T13:54:25;99636.25;;;22.09
61703;BMP280;47622;47.726;3.298;2023-08-07T13:56:51;99634.31;;;22.53
61703;BMP280;47622;47.726;3.298;2023-08-07T13:59:16;99632.75;;;23.21
61703;BMP280;47622;47.726;3.298;2023-08-07T14:01:42;99626.63;;;23.17
61703;BMP280;47622;47.726;3.298;2023-08-07T14:04:08;99620.09;;;23.07
61703;BMP280;47622;47.726;3.298;2023-08-07T14:06:33;99627.13;;;23.65
61703;BMP280;47622;47.726;3.298;2023-08-07T14:08:59;99629.84;;;23.76
61703;BMP280;47622;47.726;3.298;2023-08-07T14:11:25;99640.16;;;24.27
61703;BMP280;47622;47.726;3.298;2023-08-07T14:13:56;99628.69;;;23.95